Gundsomagle, Denmark
Current Conditions -  °F | °C
As of 1:20 AM on Saturday 29 Nov 2014 (Local Time) from EKRK Reporting Station
Overcast Overcast  
Wind Chill: 27°   Ceiling: 2600
Heat Index: 37°   Visibility: 6mi
Dew Point: 28°   Wind: 20mph
Humidity: 70%   Direction: 100°E
Pressure: 30.3"   Gusts: 31mph
Location:  55.74°N, 12.15°E
Report Text: EKRK 290020Z AUTO 10017G27KT 9999NDV BKN026/// OVC030///03/M02 Q1026
Loading
Personal Weather Stations






























Interactive Weather Map New forecast layout! Learn more

10-Day Weather Forecast

Advertisements
Track Severe Weather on mobile